Time;durP1;ratioP1;P1;durP2;ratioP2;P2;SDS_P1;SDS_P2;PMS_P1;PMS_P2;Temp;Humidity;BMP_temperature;BMP_pressure;BME280_temperature;BME280_humidity;BME280_pressure;Samples;Min_cycle;Max_cycle;Signal;HPM_P1;HPM_P2
2023/10/09 00:03:17;;;;;;;;;31.67;29.33;;;;;20.40;63.04;101943.88;5038568;28;46052;-53
2023/10/09 00:05:46;;;;;;;;;42.67;33.33;;;;;20.32;62.83;101938.56;5038705;28;45348;-49
2023/10/09 00:08:30;;;;;;;;;42.67;32.33;;;;;20.32;62.88;101943.13;5038486;28;45328;-41
2023/10/09 00:11:12;;;;;;;;;38.33;33.33;;;;;20.31;63.05;101954.94;5038745;28;45440;-41
2023/10/09 00:13:45;;;;;;;;;32.00;28.33;;;;;20.27;63.04;101950.91;5037928;28;46216;-42
2023/10/09 00:16:14;;;;;;;;;36.00;26.33;;;;;20.20;63.08;101942.69;5038177;28;45427;-44
2023/10/09 00:18:46;;;;;;;;;29.67;23.67;;;;;20.17;63.50;101938.50;5038306;28;45261;-43
2023/10/09 00:21:20;;;;;;;;;32.67;28.67;;;;;20.12;63.28;101942.75;5038487;28;45438;-41
2023/10/09 00:23:52;;;;;;;;;32.67;28.67;;;;;20.09;63.20;101935.84;5037968;28;46387;-41
2023/10/09 00:26:18;;;;;;;;;32.67;26.00;;;;;20.12;63.65;101945.47;5038197;28;45313;-42
2023/10/09 00:28:47;;;;;;;;;32.33;25.33;;;;;20.08;63.30;101939.56;5038284;28;45462;-40
2023/10/09 00:31:25;;;;;;;;;35.67;29.67;;;;;20.11;63.47;101949.19;5038388;28;45416;-42
2023/10/09 00:33:52;;;;;;;;;38.33;29.33;;;;;20.04;62.75;101942.81;5037819;28;46991;-40
2023/10/09 00:36:19;;;;;;;;;30.33;27.67;;;;;19.92;63.29;101932.44;5037940;28;45494;-45
2023/10/09 00:38:49;;;;;;;;;32.00;28.33;;;;;19.96;63.64;101945.56;5038117;28;45407;-41
2023/10/09 00:41:20;;;;;;;;;32.33;27.33;;;;;19.99;63.91;101939.81;5037531;28;45489;-39
2023/10/09 00:43:52;;;;;;;;;34.00;30.00;;;;;19.97;63.82;101939.16;5037785;28;46146;-40
2023/10/09 00:48:53;;;;;;;;;36.00;26.67;;;;;19.88;64.05;101941.06;5037994;28;45460;-41
2023/10/09 00:51:21;;;;;;;;;29.00;25.67;;;;;19.83;64.10;101928.09;5038000;28;45517;-40
2023/10/09 00:53:58;;;;;;;;;32.67;29.33;;;;;19.55;64.24;101889.97;5037463;28;46415;-40
2023/10/09 00:59:14;;;;;;;;;35.00;30.67;;;;;19.83;64.87;101933.50;5036912;28;45281;-39
2023/10/09 01:01:45;;;;;;;;;32.67;28.00;;;;;19.78;64.58;101914.31;5037681;28;45405;-39
2023/10/09 01:04:11;;;;;;;;;28.33;26.00;;;;;19.79;64.87;101913.28;5037373;28;46505;-42
2023/10/09 01:06:44;;;;;;;;;27.67;26.00;;;;;19.76;65.19;101912.78;5037366;28;45340;-40
2023/10/09 01:09:21;;;;;;;;;35.67;28.33;;;;;19.63;65.63;101897.19;5037704;28;45376;-41
2023/10/09 01:12:02;;;;;;;;;30.67;25.00;;;;;19.68;65.97;101916.41;5037832;28;45297;-42
2023/10/09 01:14:28;;;;;;;;;33.00;25.33;;;;;19.60;65.62;101890.25;5037303;28;46488;-41
2023/10/09 01:16:54;;;;;;;;;35.33;29.33;;;;;19.64;65.52;101901.59;5037348;28;45383;-41
2023/10/09 01:19:23;;;;;;;;;37.33;31.00;;;;;19.59;65.58;101896.69;5019531;28;45419;-42
2023/10/09 01:21:52;;;;;;;;;31.33;26.67;;;;;19.58;65.59;101900.38;5037326;28;45378;-48
2023/10/09 01:24:19;;;;;;;;;33.00;27.00;;;;;19.56;65.63;101897.03;5037102;28;45685;-41
2023/10/09 01:26:49;;;;;;;;;34.33;26.33;;;;;19.53;65.24;101891.16;5037205;28;45463;-40
2023/10/09 01:29:19;;;;;;;;;31.67;27.00;;;;;19.47;65.49;101892.72;5037259;28;45416;-41
2023/10/09 01:31:55;;;;;;;;;27.67;26.00;;;;;19.41;65.73;101888.84;5019735;28;45621;-40
2023/10/09 01:34:38;;;;;;;;;33.33;28.33;;;;;19.37;65.85;101889.38;5036977;28;47290;-41
2023/10/09 01:37:11;;;;;;;;;27.50;25.00;;;;;19.34;66.02;101879.78;5037174;28;45436;-41
2023/10/09 01:39:40;;;;;;;;;27.67;24.33;;;;;19.32;66.34;101876.41;5037165;28;45504;-41
2023/10/09 01:42:06;;;;;;;;;34.67;29.00;;;;;19.23;66.00;101865.84;5037377;28;45337;-41
2023/10/09 01:44:35;;;;;;;;;30.00;26.33;;;;;19.25;66.38;101872.72;5036863;28;45245;-43
2023/10/09 01:47:08;;;;;;;;;24.33;21.33;;;;;19.13;66.86;101872.31;5037032;28;45335;-41
2023/10/09 01:49:35;;;;;;;;;27.67;23.33;;;;;19.07;67.01;101864.91;5036933;28;45356;-40
2023/10/09 01:52:07;;;;;;;;;32.00;24.33;;;;;19.12;67.00;101877.84;5037219;28;45745;-41
2023/10/09 01:54:36;;;;;;;;;23.00;22.67;;;;;19.10;66.95;101872.66;5036645;28;46279;-42
2023/10/09 01:57:12;;;;;;;;;22.33;22.33;;;;;19.05;66.83;101868.81;5036730;28;45446;-40
2023/10/09 01:59:38;;;;;;;;;26.00;23.00;;;;;19.12;66.23;101875.16;5036969;28;45356;-41
2023/10/09 02:02:25;;;;;;;;;24.67;22.00;;;;;19.06;66.80;101871.31;5036879;28;45405;-45
2023/10/09 02:04:54;;;;;;;;;28.00;22.67;;;;;19.00;67.20;101872.00;5036366;28;45294;-40
2023/10/09 02:07:27;;;;;;;;;48.00;34.33;;;;;18.91;67.13;101864.97;5036348;28;45466;-40
2023/10/09 02:09:54;;;;;;;;;34.33;30.00;;;;;18.87;66.59;101847.44;5036184;28;45328;-41
2023/10/09 02:12:21;;;;;;;;;31.33;25.67;;;;;18.90;66.97;101855.19;5036899;28;45336;-40
2023/10/09 02:14:47;;;;;;;;;24.33;22.33;;;;;18.79;67.47;101850.16;5036377;28;46482;-41
2023/10/09 02:17:18;;;;;;;;;24.67;21.00;;;;;18.80;67.16;101852.72;5018533;28;45532;-39
2023/10/09 02:19:49;;;;;;;;;27.67;21.33;;;;;18.87;66.83;101860.94;5036548;28;45416;-39
2023/10/09 02:22:15;;;;;;;;;24.00;22.00;;;;;18.85;67.00;101861.13;5036768;28;45409;-48
2023/10/09 02:27:40;;;;;;;;;23.33;19.00;;;;;18.80;66.52;101855.41;5036297;28;45419;-40
2023/10/09 02:30:17;;;;;;;;;26.67;21.33;;;;;18.75;67.15;101854.22;5036493;28;45502;-42
2023/10/09 02:32:43;;;;;;;;;25.33;21.00;;;;;18.61;67.42;101847.69;5036457;28;45484;-39
2023/10/09 02:35:21;;;;;;;;;27.00;24.33;;;;;18.60;67.71;101854.91;5036191;28;46476;-41
2023/10/09 02:37:47;;;;;;;;;30.00;22.67;;;;;18.58;67.55;101853.41;5036539;28;45310;-41
2023/10/09 02:40:23;;;;;;;;;23.67;19.33;;;;;18.58;67.47;101853.41;5036288;28;45253;-40
2023/10/09 02:42:49;;;;;;;;;16.33;16.33;;;;;18.52;67.86;101851.41;5036645;28;45303;-40
2023/10/09 02:45:24;;;;;;;;;29.00;20.67;;;;;18.43;67.01;101829.03;5036195;28;47211;-40
2023/10/09 02:47:51;;;;;;;;;23.33;19.67;;;;;18.49;67.36;101841.81;5035814;28;45512;-40
2023/10/09 02:50:20;;;;;;;;;25.00;21.00;;;;;18.52;67.32;101852.25;5036213;28;45431;-41
2023/10/09 02:52:47;;;;;;;;;25.00;23.00;;;;;18.52;67.22;101846.03;5036421;28;45316;-41
2023/10/09 02:55:23;;;;;;;;;19.33;18.00;;;;;18.50;67.43;101854.28;5035854;28;46203;-41
2023/10/09 02:57:52;;;;;;;;;23.67;21.67;;;;;18.44;67.53;101836.94;5035179;28;45257;-41
2023/10/09 03:00:28;;;;;;;;;26.00;20.00;;;;;18.43;67.42;101845.19;5036106;28;45448;-41
2023/10/09 03:02:54;;;;;;;;;27.33;19.33;;;;;18.45;67.52;101845.84;5036113;28;45388;-47
2023/10/09 03:05:20;;;;;;;;;20.33;19.00;;;;;18.47;67.45;101848.41;5035430;28;45362;-47
2023/10/09 03:07:46;;;;;;;;;25.33;18.67;;;;;18.39;67.50;101830.38;5034863;28;45758;-41
2023/10/09 03:10:11;;;;;;;;;24.00;20.00;;;;;18.44;67.54;101846.88;5035870;28;45319;-41
2023/10/09 03:12:39;;;;;;;;;21.67;19.67;;;;;18.41;67.29;101850.75;5036168;28;45443;-41
2023/10/09 03:15:08;;;;;;;;;22.00;17.00;;;;;18.42;67.38;101863.22;5035551;28;47377;-39
2023/10/09 03:17:34;;;;;;;;;21.33;20.67;;;;;18.41;67.44;101858.84;5035870;28;45455;-41
2023/10/09 03:20:02;;;;;;;;;24.00;21.00;;;;;18.41;67.54;101866.06;5035822;28;45490;-40
2023/10/09 03:22:29;;;;;;;;;27.67;20.00;;;;;18.42;67.61;101860.53;5039523;28;45296;-40
2023/10/09 03:24:55;;;;;;;;;25.67;22.33;;;;;18.41;67.67;101863.38;5039189;28;46276;-42
2023/10/09 03:27:20;;;;;;;;;24.33;19.67;;;;;18.38;67.45;101855.66;5038620;28;45380;-43
2023/10/09 03:29:49;;;;;;;;;25.00;18.67;;;;;18.36;67.58;101850.41;5039342;28;45388;-40
2023/10/09 03:32:15;;;;;;;;;22.00;20.00;;;;;18.40;67.41;101856.31;5039422;28;45504;-40
2023/10/09 03:34:42;;;;;;;;;24.67;21.67;;;;;18.32;67.85;101845.53;5038217;28;46562;-42
2023/10/09 03:37:21;;;;;;;;;59.67;45.00;;;;;18.38;67.91;101848.41;5038921;28;45301;-41
2023/10/09 03:39:51;;;;;;;;;25.67;22.33;;;;;18.35;67.98;101856.81;5039055;28;45306;-41
2023/10/09 03:42:19;;;;;;;;;26.00;23.00;;;;;18.36;68.04;101846.88;5039311;28;45673;-40
2023/10/09 03:44:52;;;;;;;;;19.00;19.00;;;;;18.38;67.85;101858.34;5038730;28;46193;-40
2023/10/09 03:47:22;;;;;;;;;19.33;18.33;;;;;18.36;68.08;101850.41;5038723;28;45253;-41
2023/10/09 03:49:50;;;;;;;;;27.00;20.00;;;;;18.34;68.11;101851.63;5039126;28;45345;-41
2023/10/09 03:52:17;;;;;;;;;26.67;22.67;;;;;18.40;67.88;101867.09;5039150;28;45453;-41
2023/10/09 03:54:44;;;;;;;;;21.33;19.00;;;;;18.37;67.91;101864.72;5038711;28;45382;-39
2023/10/09 03:57:10;;;;;;;;;30.00;23.00;;;;;18.38;67.84;101867.25;5038843;28;45313;-40
2023/10/09 03:59:37;;;;;;;;;23.00;21.67;;;;;18.37;67.96;101868.28;5020811;28;45373;-41
2023/10/09 04:02:04;;;;;;;;;24.67;19.67;;;;;18.33;68.15;101861.56;5038837;28;45549;-48
2023/10/09 04:04:32;;;;;;;;;22.00;17.00;;;;;18.31;68.01;101860.03;5037558;28;45341;-48
2023/10/09 04:06:58;;;;;;;;;20.33;18.67;;;;;18.36;68.06;101869.28;5038352;28;45322;-42
2023/10/09 04:14:34;;;;;;;;;18.00;15.67;;;;;18.39;68.12;101873.50;5038657;28;45996;-41
2023/10/09 04:17:04;;;;;;;;;26.67;21.33;;;;;18.34;68.01;101862.41;5037888;28;45347;-45
2023/10/09 04:19:38;;;;;;;;;23.33;20.00;;;;;18.39;67.98;101873.50;5038695;28;45346;-42
2023/10/09 04:22:07;;;;;;;;;23.00;21.33;;;;;18.32;67.99;101859.84;5038917;28;45364;-41
2023/10/09 04:24:41;;;;;;;;;23.67;19.00;;;;;18.36;68.21;101860.34;5038350;28;46043;-42
2023/10/09 04:27:08;;;;;;;;;25.67;21.33;;;;;18.38;67.93;101869.13;5038342;28;45356;-50
2023/10/09 04:29:39;;;;;;;;;24.33;21.00;;;;;18.37;67.99;101853.94;5038474;28;45455;-47
2023/10/09 04:32:15;;;;;;;;;21.33;21.00;;;;;18.33;68.04;101856.16;5038284;28;45326;-43
2023/10/09 04:34:48;;;;;;;;;21.67;19.00;;;;;18.28;67.69;101847.72;5037847;28;45397;-50
2023/10/09 04:45:19;;;;;;;;;27.33;26.00;;;;;18.24;67.76;101859.84;5037756;28;45453;-40
2023/10/09 04:47:57;;;;;;;;;24.33;23.67;;;;;18.24;67.63;101856.31;5037505;28;45314;-40
2023/10/09 04:52:54;;;;;;;;;26.33;22.67;;;;;18.15;67.90;101859.03;5038042;28;45407;-48
2023/10/09 04:55:24;;;;;;;;;26.00;19.33;;;;;18.12;67.99;101859.38;5037655;28;46252;-40
2023/10/09 04:58:08;;;;;;;;;24.00;19.00;;;;;18.08;68.03;101857.19;5037237;28;45457;-42
2023/10/09 05:08:20;;;;;;;;;24.00;19.67;;;;;17.93;68.98;101865.09;5037447;28;45359;-42
2023/10/09 05:13:42;;;;;;;;;21.67;18.33;;;;;17.96;68.56;101875.53;5037722;28;45491;-41
2023/10/09 05:16:28;;;;;;;;;23.33;19.00;;;;;17.94;68.66;101878.38;5037040;28;45773;-42
2023/10/09 05:18:57;;;;;;;;;24.33;21.00;;;;;17.98;68.72;101888.81;5037224;28;45482;-42
2023/10/09 05:29:19;;;;;;;;;22.33;20.00;;;;;17.98;68.89;101884.28;5035841;28;45392;-41
2023/10/09 05:34:34;;;;;;;;;24.00;22.67;;;;;18.00;68.80;101887.66;5037437;28;45348;-42
2023/10/09 05:42:45;;;;;;;;;30.00;25.33;;;;;17.90;68.76;101890.47;5037329;28;45412;-42
2023/10/09 05:47:53;;;;;;;;;28.33;23.67;;;;;17.93;69.04;101897.41;5036973;28;46026;-41
2023/10/09 06:03:25;;;;;;;;;27.00;25.33;;;;;17.88;69.03;101886.28;5036987;28;45262;-41
2023/10/09 06:08:26;;;;;;;;;26.67;23.00;;;;;17.94;69.27;101905.28;5036097;28;45456;-41
2023/10/09 06:13:45;;;;;;;;;24.67;21.67;;;;;17.97;69.09;101901.44;5036844;28;45408;-46
2023/10/09 06:16:19;;;;;;;;;49.00;39.00;;;;;17.97;69.14;101896.06;5036875;28;45396;-42
2023/10/09 06:18:54;;;;;;;;;42.33;35.00;;;;;17.97;69.08;101895.22;5036459;28;45444;-41
2023/10/09 06:24:17;;;;;;;;;31.67;26.67;;;;;17.97;68.63;101904.13;5036366;28;45389;-41
2023/10/09 06:29:35;;;;;;;;;29.67;27.33;;;;;17.98;68.05;101913.88;5036484;28;45980;-43
2023/10/09 06:35:14;;;;;;;;;31.00;27.00;;;;;17.92;68.17;101914.56;5036661;28;45386;-50
2023/10/09 06:38:19;;;;;;;;;32.33;26.00;;;;;17.92;68.47;101912.72;5036241;28;45903;-43
2023/10/09 06:43:15;;;;;;;;;37.00;29.00;;;;;17.93;68.45;101918.94;5036288;28;45432;-40
2023/10/09 06:45:54;;;;;;;;;33.67;27.33;;;;;17.94;68.02;101921.44;5034972;28;45379;-45
2023/10/09 06:51:15;;;;;;;;;29.33;25.33;;;;;18.01;68.51;101927.03;5036012;28;45404;-46
2023/10/09 06:59:04;;;;;;;;;27.67;24.67;;;;;18.04;68.40;101921.31;5036224;28;45272;-42
2023/10/09 07:16:59;;;;;;;;;34.67;29.67;;;;;18.12;68.26;101925.88;5036170;28;45933;-43
2023/10/09 07:22:03;;;;;;;;;27.67;23.00;;;;;18.17;68.13;101928.91;5035677;28;45441;-41
2023/10/09 07:24:43;;;;;;;;;28.00;23.33;;;;;18.13;68.25;101920.31;5035805;28;45259;-46
2023/10/09 07:27:14;;;;;;;;;31.33;27.33;;;;;18.24;68.27;101932.56;5035870;28;45300;-49
2023/10/09 07:29:48;;;;;;;;;24.00;18.67;;;;;18.30;67.91;101936.47;5035888;28;45349;-42
2023/10/09 07:32:20;;;;;;;;;27.33;24.00;;;;;18.33;67.79;101934.28;5018957;28;46951;-50
2023/10/09 07:34:52;;;;;;;;;31.00;25.67;;;;;18.39;67.69;101946.22;5035633;28;45372;-47
2023/10/09 07:37:19;;;;;;;;;33.33;24.33;;;;;18.41;67.49;101936.97;5035359;28;45419;-46
2023/10/09 07:39:56;;;;;;;;;29.67;27.33;;;;;18.40;67.63;101932.56;5035799;28;45528;-42
2023/10/09 07:48:05;;;;;;;;;27.67;22.67;;;;;18.55;67.30;101948.09;5035550;28;45448;-42
2023/10/09 07:50:40;;;;;;;;;37.00;28.00;;;;;18.63;66.66;101940.84;5035895;28;45466;-39
2023/10/09 07:53:17;;;;;;;;;32.33;28.67;;;;;18.72;66.62;101946.25;5035128;28;45621;-40
2023/10/09 07:55:55;;;;;;;;;25.67;24.00;;;;;18.79;66.36;101955.31;5035194;28;45795;-48
2023/10/09 07:58:25;;;;;;;;;33.33;26.67;;;;;18.89;66.22;101950.59;5035446;28;45324;-46
2023/10/09 08:01:07;;;;;;;;;31.00;26.67;;;;;18.92;66.12;101945.69;5035376;28;45371;-41
2023/10/09 08:03:37;;;;;;;;;25.33;23.67;;;;;19.07;65.75;101953.06;5034910;28;46224;-41
2023/10/09 08:14:41;;;;;;;;;33.67;28.33;;;;;19.52;64.71;101951.56;5038152;28;45428;-49
2023/10/09 08:17:11;;;;;;;;;27.33;22.33;;;;;19.72;64.06;101957.34;5038431;28;45417;-41
2023/10/09 08:19:51;;;;;;;;;26.00;23.67;;;;;19.92;63.75;101959.44;5038557;28;45459;-49
2023/10/09 08:22:42;;;;;;;;;31.33;29.67;;;;;20.40;62.83;101957.41;5039002;28;45415;-49
2023/10/09 08:25:03;;;;;;;;;31.33;24.00;;;;;22.18;58.25;101954.66;5038212;28;45481;-39
2023/10/09 08:33:00;;;;;;;;;30.67;23.67;;;;;25.43;49.77;101946.66;5038705;28;45413;-48
2023/10/09 08:35:33;;;;;;;;;25.67;21.33;;;;;26.57;47.30;101960.22;5038309;28;47231;-43
2023/10/09 08:38:10;;;;;;;;;23.00;20.33;;;;;27.07;45.39;101946.47;5038435;28;45360;-42
2023/10/09 08:40:38;;;;;;;;;34.25;27.00;;;;;27.05;45.33;101942.28;5038314;28;45644;-40
2023/10/09 08:43:14;;;;;;;;;29.00;23.50;;;;;26.94;46.15;101954.00;5038542;28;45423;-41
2023/10/09 08:45:44;;;;;;;;;35.75;27.50;;;;;26.90;45.82;101959.06;5038156;28;46711;-52
2023/10/09 08:48:21;;;;;;;;;31.75;25.00;;;;;27.00;45.69;101958.53;5037960;28;45326;-46
2023/10/09 08:50:54;;;;;;;;;30.00;25.25;;;;;27.24;44.70;101954.09;5038156;28;45388;-42
2023/10/09 08:53:19;;;;;;;;;36.00;28.75;;;;;27.53;44.85;101966.16;5037965;28;45523;-42
2023/10/09 08:55:46;;;;;;;;;34.00;28.25;;;;;27.87;44.91;101961.91;5037972;28;46401;-43
2023/10/09 09:01:00;;;;;;;;;35.80;29.20;;;;;29.62;40.74;101963.03;5037837;28;45248;-42
2023/10/09 09:03:26;;;;;;;;;28.50;21.50;;;;;30.87;37.93;101963.84;5037927;28;45539;-42
2023/10/09 09:06:02;;;;;;;;;28.00;24.80;;;;;32.09;35.90;101969.19;5037627;28;45519;-52
2023/10/09 09:08:30;;;;;;;;;24.40;20.80;;;;;33.04;34.57;101970.19;5036790;28;45349;-55
2023/10/09 09:11:14;;;;;;;;;24.20;19.60;;;;;33.73;34.30;101969.91;5037896;28;45427;-45
2023/10/09 09:14:04;;;;;;;;;33.80;25.20;;;;;34.13;31.87;101970.25;5037841;28;45250;-50
2023/10/09 09:16:31;;;;;;;;;28.00;25.20;;;;;34.73;31.11;101958.38;5037570;28;45416;-50
2023/10/09 09:19:05;;;;;;;;;32.40;24.20;;;;;35.20;30.09;101964.59;5036774;28;45637;-44
2023/10/09 09:21:40;;;;;;;;;23.00;19.80;;;;;35.71;30.70;101969.91;5037684;28;45379;-49
2023/10/09 09:24:26;;;;;;;;;25.20;21.40;;;;;35.90;28.64;101968.13;5037645;28;45340;-50
2023/10/09 09:27:00;;;;;;;;;24.00;20.00;;;;;36.45;28.56;101971.59;5037201;28;45317;-47
2023/10/09 09:29:37;;;;;;;;;34.40;21.20;;;;;36.69;27.29;101968.81;5037584;28;45337;-53
2023/10/09 09:32:22;;;;;;;;;27.20;21.60;;;;;37.17;26.65;101968.03;5036731;28;45270;-52
2023/10/09 09:35:01;;;;;;;;;30.80;24.60;;;;;37.42;26.82;101962.19;5037866;28;45186;-51
2023/10/09 09:37:34;;;;;;;;;18.20;15.20;;;;;37.80;25.66;101962.19;5037223;28;46629;-49
2023/10/09 09:40:53;;;;;;;;;22.40;18.00;;;;;38.08;24.24;101963.13;5037271;28;45484;-53
2023/10/09 09:42:49;;;;;;;;;21.60;18.40;;;;;38.49;23.96;101964.41;5030072;28;45318;-49
2023/10/09 09:45:16;;;;;;;;;23.80;20.40;;;;;38.66;22.56;101957.13;5037712;28;45315;-51
2023/10/09 09:47:51;;;;;;;;;31.20;24.60;;;;;38.74;25.02;101963.91;5036901;28;45456;-46
2023/10/09 09:50:24;;;;;;;;;26.80;23.40;;;;;38.80;24.09;101957.16;5037058;28;45342;-39
2023/10/09 09:52:53;;;;;;;;;29.60;22.40;;;;;38.81;24.54;101964.38;5037405;28;45408;-43
2023/10/09 09:55:22;;;;;;;;;25.20;25.00;;;;;38.92;24.39;101960.25;5037273;28;45475;-40
2023/10/09 09:57:52;;;;;;;;;27.80;24.00;;;;;39.16;23.89;101960.03;5037026;28;46083;-39
2023/10/09 10:00:42;;;;;;;;;25.40;21.80;;;;;39.35;23.63;101962.69;5037160;28;45354;-41
2023/10/09 10:03:12;;;;;;;;;24.00;20.00;;;;;39.53;23.59;101960.06;5037197;28;45380;-41
2023/10/09 10:05:42;;;;;;;;;23.40;21.40;;;;;39.32;23.05;101951.38;5037269;28;45313;-40
2023/10/09 10:08:13;;;;;;;;;26.40;18.20;;;;;39.00;22.49;101950.34;5018909;28;46230;-40
2023/10/09 10:10:58;;;;;;;;;19.60;18.80;;;;;38.33;23.55;101950.78;5036707;28;45487;-41
2023/10/09 10:13:41;;;;;;;;;28.20;21.60;;;;;37.98;24.48;101951.38;5036622;28;45274;-43
2023/10/09 10:19:06;;;;;;;;;25.00;22.00;;;;;37.47;24.64;101943.81;5036648;28;45877;-46
2023/10/09 10:21:39;;;;;;;;;26.80;22.80;;;;;37.52;23.77;101947.31;5036692;28;45417;-42
2023/10/09 10:24:30;;;;;;;;;20.60;16.80;;;;;37.42;24.59;101945.53;5036474;28;45395;-44
2023/10/09 10:27:18;;;;;;;;;16.60;15.20;;;;;37.21;22.95;101944.94;5036966;28;45392;-48
2023/10/09 10:29:46;;;;;;;;;19.00;14.80;;;;;36.99;24.03;101947.44;5036154;28;45303;-41
2023/10/09 10:32:12;;;;;;;;;20.80;14.20;;;;;36.65;25.97;101947.53;5036538;28;45379;-42
2023/10/09 10:34:49;;;;;;;;;14.60;12.40;;;;;36.38;24.09;101948.88;5036578;28;45489;-42
2023/10/09 10:37:15;;;;;;;;;14.60;12.60;;;;;36.16;24.12;101941.06;5036713;28;45379;-43
2023/10/09 10:39:50;;;;;;;;;14.75;12.75;;;;;36.29;24.27;101947.88;5036338;28;46285;-43
2023/10/09 10:42:34;;;;;;;;;12.40;10.00;;;;;36.48;23.46;101946.03;5036373;28;45344;-42
2023/10/09 10:45:02;;;;;;;;;16.00;13.20;;;;;36.71;23.41;101940.81;5036668;28;45467;-50
2023/10/09 10:47:34;;;;;;;;;13.60;9.60;;;;;37.82;22.26;101943.25;5036746;28;45481;-41
2023/10/09 10:53:15;;;;;;;;;12.60;12.60;;;;;41.91;19.26;101939.00;4994317;28;45449;-44
2023/10/09 10:56:18;;;;;;;;;12.40;9.80;;;;;43.72;17.56;101942.88;4994195;28;45435;-52
2023/10/09 11:01:52;;;;;;;;;12.60;8.20;;;;;44.12;15.97;101938.72;4993890;28;45937;-44
2023/10/09 11:04:24;;;;;;;;;12.40;9.40;;;;;42.96;16.65;101926.31;4994120;28;45468;-44
2023/10/09 11:06:51;;;;;;;;;8.00;7.80;;;;;42.16;17.79;101923.31;4994525;28;45328;-41
2023/10/09 11:09:23;;;;;;;;;11.00;8.80;;;;;42.39;17.27;101924.72;4994309;28;45638;-42
2023/10/09 11:11:55;;;;;;;;;12.20;9.00;;;;;42.87;17.29;101929.16;4994102;28;47069;-41
2023/10/09 11:14:23;;;;;;;;;11.60;8.00;;;;;42.43;17.55;101928.50;4994211;28;45325;-41
2023/10/09 11:16:57;;;;;;;;;10.40;8.20;;;;;41.69;16.94;101920.41;4977772;28;45407;-41
2023/10/09 11:22:39;;;;;;;;;10.20;7.20;;;;;42.98;16.20;101921.97;4993972;28;45958;-44
2023/10/09 11:24:46;;;;;;;;;4.20;4.00;;;;;43.81;13.80;101912.78;4983644;28;45624;-49
2023/10/09 11:27:18;;;;;;;;;5.40;4.40;;;;;44.47;13.16;101916.72;5017963;28;45360;-40
2023/10/09 11:32:23;;;;;;;;;6.40;6.40;;;;;45.73;12.98;101925.06;5035627;28;46112;-47
2023/10/09 11:34:52;;;;;;;;;5.40;5.20;;;;;46.21;13.81;101917.56;5035190;28;45297;-41
2023/10/09 11:40:00;;;;;;;;;6.20;6.00;;;;;46.03;12.79;101917.06;5036036;28;45691;-44
2023/10/09 11:45:21;;;;;;;;;5.40;4.00;;;;;45.54;13.80;101914.47;5039040;28;45409;-42
2023/10/09 11:47:59;;;;;;;;;11.00;9.20;;;;;44.74;13.85;101915.22;5039028;28;45440;-45
2023/10/09 11:50:56;;;;;;;;;5.60;5.60;;;;;44.48;14.21;101907.13;5039240;28;45574;-53
2023/10/09 11:55:48;;;;;;;;;5.00;5.00;;;;;43.15;14.94;101906.25;5039054;28;45360;-51
2023/10/09 11:58:23;;;;;;;;;9.20;7.60;;;;;42.43;15.36;101908.09;5038979;28;45295;-41
2023/10/09 12:01:03;;;;;;;;;7.00;4.60;;;;;41.82;16.16;101897.09;5039177;28;45329;-40
2023/10/09 12:03:29;;;;;;;;;6.60;6.60;;;;;41.22;16.07;101892.31;5038965;28;45787;-43
2023/10/09 12:06:05;;;;;;;;;6.00;6.00;;;;;40.68;16.67;101894.47;5038536;28;45481;-44
2023/10/09 12:08:32;;;;;;;;;7.80;7.80;;;;;40.20;16.99;101893.25;5038856;28;45409;-40
2023/10/09 12:10:57;;;;;;;;;6.20;5.00;;;;;39.69;17.46;101905.69;5039018;28;45476;-40
2023/10/09 12:13:23;;;;;;;;;8.00;6.75;;;;;39.24;18.05;101894.47;5038569;28;46106;-41
2023/10/09 12:15:53;;;;;;;;;5.25;5.25;;;;;38.59;17.79;101884.38;5038801;28;45404;-48
2023/10/09 12:18:20;;;;;;;;;6.40;5.60;;;;;38.03;19.13;101885.44;5038919;28;45510;-42
2023/10/09 12:20:52;;;;;;;;;7.40;7.00;;;;;37.42;18.97;101870.59;5037745;28;45400;-43
2023/10/09 12:23:20;;;;;;;;;10.20;7.00;;;;;37.09;19.61;101866.88;5038661;28;45367;-40
2023/10/09 12:25:45;;;;;;;;;6.20;5.20;;;;;36.91;20.57;101862.91;5036761;28;45399;-41
2023/10/09 12:28:14;;;;;;;;;8.00;6.50;;;;;36.58;21.08;101863.91;5018482;28;45392;-41
2023/10/09 12:30:41;;;;;;;;;9.80;6.80;;;;;36.28;20.73;101862.25;5034455;28;45417;-41
2023/10/09 12:33:08;;;;;;;;;6.80;6.80;;;;;35.90;21.50;101873.09;5036857;28;46928;-41
2023/10/09 12:35:37;;;;;;;;;10.00;7.60;;;;;35.47;21.60;101857.13;5036483;28;45351;-45
2023/10/09 12:38:08;;;;;;;;;10.80;8.20;;;;;35.12;21.90;101865.63;5036779;28;45464;-46
2023/10/09 12:40:34;;;;;;;;;9.80;9.00;;;;;34.73;22.99;101858.03;5036383;28;45501;-40
2023/10/09 12:42:59;;;;;;;;;9.80;8.00;;;;;34.24;23.64;101854.00;5036327;28;46658;-43
2023/10/09 12:45:26;;;;;;;;;8.75;6.25;;;;;33.80;24.26;101850.97;5035665;28;45485;-44
2023/10/09 12:47:53;;;;;;;;;7.40;7.00;;;;;33.26;23.33;101835.72;5036426;28;45506;-42
2023/10/09 12:50:27;;;;;;;;;11.40;7.40;;;;;32.89;22.99;101835.03;5036966;28;45436;-43
2023/10/09 12:52:56;;;;;;;;;7.00;6.20;;;;;32.27;23.16;101809.91;5036018;28;45394;-41
2023/10/09 12:55:21;;;;;;;;;11.60;7.80;;;;;32.08;23.92;101829.88;5036336;28;45448;-47
2023/10/09 12:57:48;;;;;;;;;11.75;7.50;;;;;31.74;25.27;101833.72;5036397;28;46724;-46
2023/10/09 13:00:13;;;;;;;;;8.40;7.20;;;;;31.46;24.48;101828.50;5036623;28;45880;-43
2023/10/09 13:02:43;;;;;;;;;9.50;7.00;;;;;31.24;23.75;101837.63;5017920;28;47654;-42
2023/10/09 13:05:10;;;;;;;;;7.00;6.00;;;;;30.97;23.86;101826.59;5036276;28;45329;-50
2023/10/09 13:07:36;;;;;;;;;6.80;6.80;;;;;30.76;24.70;101842.00;5018062;28;45575;-47
2023/10/09 13:10:12;;;;;;;;;7.25;7.25;;;;;30.56;25.22;101826.06;5036509;28;45460;-41
2023/10/09 13:12:46;;;;;;;;;10.60;6.80;;;;;30.29;24.79;101820.44;5035758;28;47119;-48
2023/10/09 13:15:12;;;;;;;;;8.80;6.80;;;;;30.16;24.74;101823.56;5036365;28;45301;-44
2023/10/09 13:17:38;;;;;;;;;10.25;7.00;;;;;29.99;24.54;101826.28;5036005;28;46036;-42
2023/10/09 13:20:13;;;;;;;;;7.20;7.00;;;;;29.80;24.54;101811.19;5036258;28;45579;-44
2023/10/09 13:22:40;;;;;;;;;6.60;6.60;;;;;29.74;24.20;101823.13;5035887;28;46045;-41
2023/10/09 13:25:07;;;;;;;;;9.20;5.80;;;;;29.65;25.59;101822.72;5035708;28;45537;-47
2023/10/09 13:27:34;;;;;;;;;9.60;6.20;;;;;29.61;24.90;101829.75;5035392;28;45392;-41
2023/10/09 13:30:05;;;;;;;;;8.20;5.60;;;;;29.49;24.40;101809.78;5036180;28;45517;-42
2023/10/09 13:32:35;;;;;;;;;7.40;6.00;;;;;29.49;24.87;101824.31;5035766;28;45548;-44
2023/10/09 13:35:04;;;;;;;;;8.20;7.00;;;;;29.46;24.21;101819.34;5035905;28;45537;-42
2023/10/09 13:37:31;;;;;;;;;6.60;5.00;;;;;29.40;23.65;101812.09;5033783;28;45391;-45
2023/10/09 13:39:57;;;;;;;;;7.00;6.60;;;;;29.33;25.00;101812.25;5036081;28;45478;-41
2023/10/09 13:42:26;;;;;;;;;9.50;6.00;;;;;29.26;24.31;101811.56;5027354;28;45544;-41
2023/10/09 13:44:53;;;;;;;;;8.40;6.60;;;;;29.14;24.77;101796.25;5035635;28;45518;-42
2023/10/09 13:47:20;;;;;;;;;11.60;7.60;;;;;29.17;24.16;101820.44;5035457;28;45397;-42
2023/10/09 13:49:50;;;;;;;;;8.00;8.00;;;;;29.08;25.70;101807.13;5033193;28;45590;-44
2023/10/09 13:52:18;;;;;;;;;7.60;5.40;;;;;29.03;24.57;101808.91;5027033;28;45410;-44
2023/10/09 13:54:47;;;;;;;;;6.60;4.60;;;;;29.00;25.09;101802.03;5035410;28;45423;-43
2023/10/09 13:57:14;;;;;;;;;6.00;6.00;;;;;29.00;25.57;101804.78;5035756;28;45475;-42
2023/10/09 13:59:49;;;;;;;;;4.40;3.00;;;;;28.96;25.60;101810.97;5035518;28;45513;-44
2023/10/09 14:02:18;;;;;;;;;7.80;5.60;;;;;28.91;25.43;101803.47;5017355;28;47687;-43
2023/10/09 14:04:45;;;;;;;;;8.80;7.20;;;;;28.88;26.64;101795.75;5034902;28;45623;-44
2023/10/09 14:07:10;;;;;;;;;9.40;8.60;;;;;28.81;25.64;101803.25;5029578;28;45488;-49